createdAt,value
2018-12-21T00:02:01.106Z,37.0
2018-12-21T00:07:01.104Z,38.0
2018-12-21T00:17:01.171Z,37.5
2018-12-21T00:22:06.245Z,37.0
2018-12-21T00:27:01.105Z,36.4
2018-12-21T00:32:01.182Z,36.3
2018-12-21T00:37:06.127Z,37.2
2018-12-21T00:42:06.115Z,37.3
2018-12-21T00:47:01.152Z,39.7
2018-12-21T00:52:01.267Z,37.9
2018-12-21T00:57:01.138Z,37.2
2018-12-21T01:02:01.714Z,35.9
2018-12-21T01:07:01.106Z,35.7
2018-12-21T01:12:01.173Z,33.5
2018-12-21T01:17:06.125Z,34.2
2018-12-21T01:22:01.244Z,34.8
2018-12-21T01:27:02.518Z,35.3
2018-12-21T01:32:06.248Z,36.1
2018-12-21T01:37:06.117Z,37.5
2018-12-21T01:42:01.280Z,38.6
2018-12-21T01:52:06.186Z,39.4
2018-12-21T01:57:06.122Z,38.4
2018-12-21T02:02:06.253Z,38.9
2018-12-21T02:07:01.106Z,38.6
2018-12-21T02:12:01.105Z,39.6
2018-12-21T02:17:01.102Z,41.2
2018-12-21T02:22:01.167Z,41.7
2018-12-21T02:32:01.238Z,43.4
2018-12-21T02:37:01.117Z,43.3
2018-12-21T02:42:01.185Z,41.4
2018-12-21T02:47:01.250Z,42.4
2018-12-21T02:52:06.179Z,43.2
2018-12-21T02:57:01.153Z,44.5
2018-12-21T03:02:01.207Z,44.6
2018-12-21T03:07:01.122Z,45.2
2018-12-21T03:12:01.241Z,47.0
2018-12-21T03:17:06.119Z,47.4
2018-12-21T03:22:01.204Z,46.1
2018-12-21T03:27:01.151Z,45.1
2018-12-21T03:32:01.283Z,47.9
2018-12-21T03:37:01.148Z,46.2
2018-12-21T03:42:01.240Z,46.8
2018-12-21T03:47:01.153Z,46.1
2018-12-21T03:52:01.147Z,47.5
2018-12-21T03:57:01.118Z,45.6
2018-12-21T04:02:06.193Z,46.9
2018-12-21T04:07:06.124Z,45.0
2018-12-21T04:12:01.265Z,46.3
2018-12-21T04:17:01.107Z,44.3
2018-12-21T04:22:01.515Z,42.4
2018-12-21T04:27:01.202Z,41.0
2018-12-21T04:32:01.209Z,39.3
2018-12-21T04:37:01.144Z,37.6
2018-12-21T04:42:01.273Z,37.9
2018-12-21T04:47:01.148Z,39.0
2018-12-21T04:52:01.150Z,38.7
2018-12-21T04:57:01.150Z,38.1
2018-12-21T05:02:01.208Z,37.2
2018-12-21T05:07:01.141Z,38.0
2018-12-21T05:12:01.147Z,36.4
2018-12-21T05:17:01.151Z,35.3
2018-12-21T05:22:01.137Z,35.0
2018-12-21T05:27:01.141Z,34.4
2018-12-21T05:32:06.108Z,32.6
2018-12-21T05:37:06.110Z,32.8
2018-12-21T05:42:01.201Z,31.5
2018-12-21T05:47:01.135Z,32.0
2018-12-21T05:52:06.183Z,32.6
2018-12-21T05:57:06.118Z,31.9
2018-12-21T06:02:06.241Z,30.6
2018-12-21T06:07:01.147Z,30.8
2018-12-21T06:12:01.228Z,30.6
2018-12-21T06:17:01.147Z,31.6
2018-12-21T06:22:01.280Z,31.2
2018-12-21T06:27:01.150Z,32.5
2018-12-21T06:32:01.221Z,33.7
2018-12-21T06:38:01.110Z,34.3
2018-12-21T06:48:01.263Z,36.3
2018-12-21T06:53:06.178Z,36.5
2018-12-21T06:58:01.106Z,36.1
2018-12-21T07:03:01.243Z,35.3
2018-12-21T07:08:01.151Z,34.2
2018-12-21T07:13:01.247Z,34.7
2018-12-21T07:18:06.122Z,35.4
2018-12-21T07:23:01.115Z,34.2
2018-12-21T07:28:01.115Z,35.3
2018-12-21T07:33:01.170Z,36.4
2018-12-21T07:38:01.097Z,35.3
2018-12-21T07:43:06.249Z,34.0
2018-12-21T07:48:01.175Z,36.0
2018-12-21T07:53:01.298Z,34.8
2018-12-21T07:58:01.141Z,33.6
2018-12-21T08:03:01.268Z,33.2
2018-12-21T08:08:01.145Z,33.8
2018-12-21T08:13:01.150Z,33.1
2018-12-21T08:18:01.154Z,32.8
2018-12-21T08:23:06.252Z,32.0
2018-12-21T08:28:01.140Z,31.3
2018-12-21T08:33:01.210Z,30.5
2018-12-21T08:38:06.117Z,31.9
2018-12-21T08:43:06.180Z,32.9
2018-12-21T08:48:01.110Z,33.6
2018-12-21T08:58:01.175Z,33.1
2018-12-21T09:03:01.173Z,31.9
2018-12-21T09:08:01.111Z,31.6
2018-12-21T09:13:02.301Z,32.1
2018-12-21T09:18:01.103Z,33.1
2018-12-21T09:23:01.232Z,34.2
2018-12-21T09:28:01.110Z,33.6
2018-12-21T09:33:01.238Z,33.1
2018-12-21T09:38:01.109Z,32.6
2018-12-21T09:43:02.229Z,31.3
2018-12-21T09:48:01.124Z,30.2
2018-12-21T09:53:01.240Z,30.4
2018-12-21T09:58:06.122Z,30.6
2018-12-21T10:03:01.260Z,31.1
2018-12-21T10:08:01.101Z,31.7
2018-12-21T10:13:01.164Z,32.8
2018-12-21T10:18:01.097Z,33.3
2018-12-21T10:23:01.174Z,32.8
2018-12-21T10:28:01.107Z,33.2
2018-12-21T10:33:01.663Z,34.2
2018-12-21T10:38:01.109Z,33.2
2018-12-21T10:43:01.172Z,31.4
2018-12-21T10:48:01.111Z,30.8
2018-12-21T10:53:01.177Z,29.8
2018-12-21T10:58:01.115Z,28.2
2018-12-21T11:03:01.162Z,26.8
2018-12-21T11:08:01.075Z,26.3
2018-12-21T11:13:06.206Z,26.7
2018-12-21T11:18:01.108Z,26.5
2018-12-21T11:23:01.173Z,25.2
2018-12-21T11:28:06.151Z,26.1
2018-12-21T11:33:01.176Z,26.3
2018-12-21T11:38:01.114Z,25.6
2018-12-21T11:43:01.241Z,25.4
2018-12-21T11:48:01.104Z,25.5
2018-12-21T11:53:01.147Z,25.2
2018-12-21T11:58:01.116Z,25.0
2018-12-21T12:03:01.193Z,24.2
2018-12-21T12:08:01.209Z,23.2
2018-12-21T12:13:01.233Z,23.8
2018-12-21T12:18:01.105Z,25.9
2018-12-21T12:23:01.110Z,27.4
2018-12-21T12:28:01.111Z,29.3
2018-12-21T12:33:01.175Z,30.8
2018-12-21T12:38:01.109Z,31.6
2018-12-21T12:43:01.178Z,29.1
2018-12-21T12:48:01.114Z,27.1
2018-12-21T12:53:01.252Z,25.5
2018-12-21T12:58:01.123Z,23.1
2018-12-21T13:03:02.324Z,22.3
2018-12-21T13:08:06.119Z,21.4
2018-12-21T13:13:01.169Z,20.8
2018-12-21T13:18:01.099Z,20.5
2018-12-21T13:23:01.229Z,20.1
2018-12-21T13:28:01.104Z,19.4
2018-12-21T13:33:06.248Z,19.3
2018-12-21T13:38:01.103Z,19.0
2018-12-21T13:48:01.107Z,18.3
2018-12-21T13:53:01.112Z,17.1
2018-12-21T13:58:01.149Z,16.9
2018-12-21T14:03:01.246Z,18.2
2018-12-21T14:08:01.115Z,17.3
2018-12-21T14:13:01.114Z,16.6
2018-12-21T14:18:01.118Z,16.9
2018-12-21T14:23:01.115Z,17.4
2018-12-21T14:28:01.253Z,16.9
2018-12-21T14:33:01.426Z,17.5
2018-12-21T14:38:01.136Z,19.0
2018-12-21T14:43:01.101Z,18.6
2018-12-21T14:48:01.074Z,17.6
2018-12-21T14:53:01.109Z,16.2
2018-12-21T14:58:06.116Z,15.4
2018-12-21T15:03:01.150Z,14.8
2018-12-21T15:08:06.123Z,14.6
2018-12-21T15:13:01.141Z,15.8
2018-12-21T15:18:01.137Z,16.4
2018-12-21T15:28:01.231Z,16.8
2018-12-21T15:33:01.173Z,17.3
2018-12-21T15:38:01.100Z,16.0
2018-12-21T15:43:01.210Z,14.7
2018-12-21T15:53:01.109Z,14.0
2018-12-21T15:58:01.108Z,13.6
2018-12-21T16:03:06.178Z,13.4
2018-12-21T16:08:01.112Z,13.9
2018-12-21T16:13:06.187Z,13.8
2018-12-21T16:18:01.118Z,14.5
2018-12-21T16:23:01.239Z,14.8
2018-12-21T16:28:06.104Z,15.1
2018-12-21T16:33:01.163Z,15.8
2018-12-21T16:38:01.125Z,16.8
2018-12-21T16:43:06.271Z,16.0
2018-12-21T16:48:06.101Z,16.3
2018-12-21T16:53:01.201Z,16.8
2018-12-21T16:58:01.139Z,17.6
2018-12-21T17:03:01.209Z,16.4
2018-12-21T17:08:01.137Z,16.5
2018-12-21T17:13:01.267Z,16.0
2018-12-21T17:18:01.138Z,15.0
2018-12-21T17:23:01.209Z,13.8
2018-12-21T17:28:06.115Z,14.6
2018-12-21T17:33:01.199Z,14.9
2018-12-21T17:38:01.142Z,14.7
2018-12-21T17:43:06.250Z,15.4
2018-12-21T17:53:01.166Z,14.4
2018-12-21T18:03:01.235Z,14.0
2018-12-21T18:08:06.109Z,13.8
2018-12-21T18:13:01.105Z,13.4
2018-12-21T18:18:01.106Z,13.1
2018-12-21T18:23:01.134Z,12.6
2018-12-21T18:28:01.116Z,12.5
2018-12-21T18:33:10.207Z,12.0
2018-12-21T18:43:01.182Z,12.1
2018-12-21T18:49:01.102Z,11.3
2018-12-21T18:54:06.108Z,11.8
2018-12-21T18:59:06.103Z,11.7
2018-12-21T19:04:06.845Z,11.1
2018-12-21T19:09:06.114Z,11.5
2018-12-21T19:14:01.113Z,11.4
2018-12-21T19:19:01.115Z,10.2
2018-12-21T19:24:01.177Z,9.1
2018-12-21T19:29:01.115Z,8.5
2018-12-21T19:34:01.184Z,8.1
2018-12-21T19:39:01.160Z,7.8
2018-12-21T19:44:01.228Z,8.2
2018-12-21T19:49:01.101Z,10.0
2018-12-21T20:04:01.172Z,10.0
2018-12-21T20:14:01.134Z,8.8
2018-12-21T20:19:06.121Z,9.7
2018-12-21T20:29:01.104Z,10.2
2018-12-21T20:34:01.178Z,10.6
2018-12-21T20:39:01.208Z,11.6
2018-12-21T20:44:01.180Z,11.9
2018-12-21T20:49:06.109Z,12.0
2018-12-21T20:54:01.259Z,12.9
2018-12-21T20:59:01.106Z,12.6
2018-12-21T21:04:01.215Z,16.8
2018-12-21T21:14:01.226Z,17.3
2018-12-21T21:19:06.111Z,17.0
2018-12-21T21:24:06.181Z,18.4
2018-12-21T21:29:01.109Z,14.6
2018-12-21T21:34:01.256Z,14.2
2018-12-21T21:39:02.140Z,15.0
2018-12-21T21:44:01.180Z,16.5
2018-12-21T21:49:01.114Z,16.3
2018-12-21T21:54:01.103Z,16.8
2018-12-21T21:59:01.106Z,18.8
2018-12-21T22:04:01.225Z,18.6
2018-12-21T22:09:01.135Z,17.4
2018-12-21T22:14:01.162Z,16.7
2018-12-21T22:19:01.133Z,16.4
2018-12-21T22:24:01.207Z,15.1
2018-12-21T22:29:01.135Z,13.7
2018-12-21T22:34:01.205Z,13.6
2018-12-21T22:39:01.138Z,13.9
2018-12-21T22:44:01.213Z,14.6
2018-12-21T22:49:06.118Z,14.2
2018-12-21T22:54:01.276Z,15.2
2018-12-21T22:59:01.145Z,14.9
2018-12-21T23:04:01.145Z,15.0
2018-12-21T23:09:01.130Z,13.4
2018-12-21T23:14:01.301Z,13.1
2018-12-21T23:19:01.136Z,12.4
2018-12-21T23:24:01.205Z,12.7
2018-12-21T23:29:01.142Z,11.9
2018-12-21T23:34:06.185Z,11.4
2018-12-21T23:39:01.134Z,11.1
2018-12-21T23:44:01.267Z,11.2
2018-12-21T23:49:01.133Z,10.0
2018-12-21T23:54:01.173Z,9.9
2018-12-21T23:59:06.115Z,9.7
